Ligovsky Prospect — A8AP5 — position and weather

sailwx.info

Track history (hours):
 
Tides and Currents Weather Stations Pressure Air Temp Water Temp Dewpoint Dewpoint Depression Visibility Wind Speed Wind Dir Waves Ship Positions

Ligovsky Prospect

Last reported at 2018-Feb-23 02:56 UTC. Time now 2018-Feb-23 03:11 UTC.
Position N 55°46' E 016°41'.

Length 250 m; draft 8.8 m.

Type: Ship. MMSI: 636011641.

Date/timePositionNaut miles runAvg speedWind from/ knotsBaromVisibWave heightAir tempDewpointWater temp
2018-Feb-23 02:56N 55°46' E 016°41'511.5
2018-Feb-23 02:30N 55°45' E 016°32'611.7
2018-Feb-23 02:00N 55°44' E 016°22'611.6
2018-Feb-23 01:30N 55°42' E 016°12'611.4
2018-Feb-23 01:00N 55°41' E 016°02'611.4
2018-Feb-23 00:30N 55°40' E 015°53'611.4
2018-Feb-23 00:00N 55°38' E 015°43'611.2
2018-Feb-22 23:30N 55°37' E 015°33'611.2
2018-Feb-22 23:00N 55°35' E 015°24'511.1
2018-Feb-22 22:30N 55°33' E 015°15'510.9
2018-Feb-22 22:00N 55°30' E 015°06'510.8
2018-Feb-22 21:30N 55°28' E 014°58'510.8
2018-Feb-22 21:00N 55°26' E 014°49'510.9
2018-Feb-22 20:30N 55°24' E 014°40'510.7
2018-Feb-22 20:00N 55°20' E 014°33'510.9
2018-Feb-22 19:30N 55°16' E 014°27'510.9
2018-Feb-22 19:00N 55°12' E 014°21'611.0
2018-Feb-22 18:30N 55°07' E 014°15'611.0
2018-Feb-22 17:59N 55°03' E 014°08'1310.4
2018-Feb-22 16:44N 54°58' E 013°47'5210.3
2018-Feb-22 11:45N 54°38' E 012°25'210.3
2018-Feb-22 11:30N 54°37' E 012°21'5 9.8
2018-Feb-22 11:00N 54°33' E 012°16'510.2
2018-Feb-22 10:30N 54°28' E 012°13'4 9.0
2018-Feb-22 10:00N 54°25' E 012°08'1010.7
2018-Feb-22 09:02N 54°25' E 011°50'410.7
2018-Feb-22 08:42N 54°26' E 011°44'211.0
2018-Feb-22 08:29N 54°27' E 011°40'510.9
2018-Feb-22 08:00N 54°29' E 011°32'510.7
2018-Feb-22 07:30N 54°31' E 011°24'510.3
2018-Feb-22 07:00N 54°34' E 011°16'510.0
2018-Feb-22 06:30N 54°36' E 011°08'510.2
2018-Feb-22 06:00N 54°39' E 011°01'510.3
2018-Feb-22 05:30N 54°41' E 010°53'4 8.0
2018-Feb-22 05:00N 54°45' E 010°49'4 9.0
2018-Feb-22 04:30N 54°49' E 010°51'510.8
2018-Feb-22 04:00N 54°54' E 010°53'611.2
2018-Feb-22 03:30N 54°59' E 010°60'611.2
2018-Feb-22 03:00N 55°04' E 011°02'510.9
2018-Feb-22 02:30N 55°09' E 011°03'510.6
2018-Feb-22 02:00N 55°15' E 011°05'611.6
2018-Feb-22 01:30N 55°20' E 011°02'10110.0
2018-Feb-21 15:27N 56°58' E 011°44'511.1
2018-Feb-21 15:00N 57°03' E 011°41'510.9
2018-Feb-21 14:30N 57°08' E 011°37'511.1
2018-Feb-21 14:00N 57°13' E 011°34'611.5
2018-Feb-21 13:30N 57°18' E 011°30'611.4
2018-Feb-21 13:00N 57°24' E 011°27'510.6
2018-Feb-21 12:30N 57°28' E 011°22'611.1
2018-Feb-21 12:00N 57°32' E 011°15'611.1
2018-Feb-21 11:30N 57°36' E 011°07'510.6
2018-Feb-21 11:00N 57°40' E 011°00'611.2
2018-Feb-21 10:30N 57°45' E 010°60'611.6
2018-Feb-21 10:00N 57°51' E 011°00'611.6
2018-Feb-21 09:30N 57°57' E 010°60'611.1
2018-Feb-21 09:00N 58°03' E 011°00'510.6
2018-Feb-21 08:30N 58°08' E 011°00'510.0
2018-Feb-21 08:00N 58°12' E 011°05'510.5
2018-Feb-21 07:30N 58°15' E 011°13'5 9.3
2018-Feb-21 07:00N 58°18' E 011°20'4 0.1
2018-Feb-20 03:20N 58°21' E 011°24'0 0.1
2018-Feb-20 03:00N 58°21' E 011°24'1 1.4
2018-Feb-20 02:30N 58°20' E 011°23'2 3.2
2018-Feb-20 02:00N 58°19' E 011°21'4 8.2
2018-Feb-20 01:30N 58°16' E 011°16'5 9.5
2018-Feb-20 01:00N 58°13' E 011°09'4 7.1
2018-Feb-20 00:30N 58°12' E 011°03'4 7.1
2018-Feb-20 00:00N 58°09' E 011°02'510.3
2018-Feb-19 23:30N 58°04' E 010°57'613.0
2018-Feb-19 23:00N 57°58' E 010°60'612.7
2018-Feb-19 22:30N 57°52' E 011°02'612.5
2018-Feb-19 22:00N 57°45' E 011°05'612.8
2018-Feb-19 21:30N 57°40' E 011°10'612.5
2018-Feb-19 21:00N 57°34' E 011°16'612.1
2018-Feb-19 20:30N 57°30' E 011°23'612.0
2018-Feb-19 20:00N 57°25' E 011°29'611.8
2018-Feb-19 19:30N 57°19' E 011°34'611.6
2018-Feb-19 19:00N 57°14' E 011°37'612.1
2018-Feb-19 18:30N 57°08' E 011°40'11010.9
2018-Feb-19 08:24N 55°20' E 011°02'410.6
2018-Feb-19 07:59N 55°16' E 011°05'5 9.5
2018-Feb-19 07:30N 55°12' E 011°05'611.2
2018-Feb-19 07:00N 55°07' E 010°59'612.4
2018-Feb-19 06:30N 55°01' E 010°59'611.6
2018-Feb-19 06:00N 54°56' E 010°53'612.0
2018-Feb-19 05:30N 54°50' E 010°50'611.6
2018-Feb-19 05:00N 54°45' E 010°47'5 9.6
2018-Feb-19 04:30N 54°40' E 010°49'612.2
2018-Feb-19 04:00N 54°37' E 010°58'612.4
2018-Feb-19 03:30N 54°36' E 011°08'612.9
2018-Feb-19 03:00N 54°34' E 011°18'612.8
2018-Feb-19 02:30N 54°31' E 011°28'612.4
2018-Feb-19 02:00N 54°28' E 011°38'612.5
2018-Feb-19 01:30N 54°27' E 011°49'612.9
2018-Feb-19 01:00N 54°26' E 011°60'810.8
2018-Feb-19 00:16N 54°29' E 012°12'312.1
2018-Feb-19 00:00N 54°32' E 012°14'5 9.4
2018-Feb-18 23:30N 54°36' E 012°18'5411.6
2018-Feb-18 18:50N 54°59' E 013°43'512.8
2018-Feb-18 18:28N 55°01' E 013°51'612.5
2018-Feb-18 18:00N 55°03' E 014°00'711.8
2018-Feb-18 17:27N 55°07' E 014°09'712.1
2018-Feb-18 16:54N 55°12' E 014°15'712.1
2018-Feb-18 16:17N 55°18' E 014°24'512.4
2018-Feb-18 15:52N 55°22' E 014°30'512.5
2018-Feb-18 15:30N 55°25' E 014°35'612.4
2018-Feb-18 14:59N 55°28' E 014°45'812.5
2018-Feb-18 14:19N 55°32' E 014°58'412.4
2018-Feb-18 14:00N 55°34' E 015°04'612.2
2018-Feb-18 13:30N 55°36' E 015°14'612.0
2018-Feb-18 13:00N 55°38' E 015°24'612.1
2018-Feb-18 12:30N 55°40' E 015°35'612.1
2018-Feb-18 12:00N 55°41' E 015°45'612.2
2018-Feb-18 11:30N 55°43' E 015°55'612.3
2018-Feb-18 11:00N 55°45' E 016°06'612.2
2018-Feb-18 10:30N 55°47' E 016°16'612.2
2018-Feb-18 10:00N 55°48' E 016°27'612.2
2018-Feb-18 09:30N 55°50' E 016°37'612.2
2018-Feb-18 09:00N 55°51' E 016°48'612.3
2018-Feb-18 08:30N 55°53' E 016°58'28912.1
2018-Feb-17 08:42N 59°32' E 022°51'413.4
2018-Feb-17 08:26N 59°33' E 022°57'613.3
2018-Feb-17 08:00N 59°35' E 023°08'612.9
2018-Feb-17 07:30N 59°37' E 023°20'713.1
2018-Feb-17 07:00N 59°39' E 023°32'714.4
2018-Feb-17 06:30N 59°42' E 023°46'714.2
2018-Feb-17 06:00N 59°44' E 023°60'713.1
2018-Feb-17 05:28N 59°46' E 024°13'613.4
2018-Feb-17 05:00N 59°47' E 024°25'713.3
2018-Feb-17 04:30N 59°49' E 024°38'613.0
2018-Feb-17 04:00N 59°50' E 024°50'713.0
2018-Feb-17 03:30N 59°51' E 025°03'612.9
2018-Feb-17 03:00N 59°52' E 025°16'612.9
2018-Feb-17 02:30N 59°53' E 025°28'613.1
2018-Feb-17 02:00N 59°54' E 025°41'1412.8
2018-Feb-17 00:56N 59°58' E 026°08'613.0
2018-Feb-17 00:31N 59°59' E 026°18'613.0
2018-Feb-17 00:01N 60°01' E 026°31'612.4
2018-Feb-16 23:30N 60°01' E 026°43'714.1
2018-Feb-16 23:00N 59°60' E 026°57'510.2
2018-Feb-16 22:30N 60°01' E 027°07'612.6
2018-Feb-16 22:00N 60°04' E 027°18'611.6
2018-Feb-16 21:30N 60°07' E 027°28'5 9.7
2018-Feb-16 21:00N 60°09' E 027°36'4 8.5
2018-Feb-16 20:29N 60°11' E 027°45'4 8.8
2018-Feb-16 20:00N 60°11' E 027°53'4 8.7
2018-Feb-16 19:30N 60°10' E 028°02'4 7.7
2018-Feb-16 19:00N 60°09' E 028°09'4 8.6
2018-Feb-16 18:30N 60°08' E 028°17'510.1
2018-Feb-16 18:00N 60°05' E 028°26'5 9.8
2018-Feb-16 17:30N 60°03' E 028°35'5 9.3
2018-Feb-16 17:00N 59°58' E 028°36'3 7.0
2018-Feb-16 16:30N 59°55' E 028°33'4 8.4
2018-Feb-16 16:00N 59°52' E 028°28'611.0
2018-Feb-16 15:30N 59°47' E 028°25'4 7.6
2018-Feb-16 15:00N 59°43' E 028°25'0 0.7
2018-Feb-16 14:27N 59°43' E 028°26'0 0.0
2018-Feb-16 13:57N 59°43' E 028°26'0 0.0
2018-Feb-16 13:27N 59°43' E 028°26'0 0.0
2018-Feb-16 12:57N 59°43' E 028°26'0 0.0
2018-Feb-16 12:27N 59°43' E 028°26'0 0.0
2018-Feb-16 11:57N 59°43' E 028°26'0 0.0
2018-Feb-16 11:30N 59°43' E 028°26'0 0.0
2018-Feb-16 11:00N 59°43' E 028°26'0 0.0
2018-Feb-16 10:30N 59°43' E 028°26'0 0.0
2018-Feb-16 10:00N 59°43' E 028°26'0 0.0
2018-Feb-16 09:30N 59°43' E 028°26'0 0.0
2018-Feb-16 09:00N 59°43' E 028°26'0 0.0
2018-Feb-16 08:30N 59°43' E 028°26'0 0.0
2018-Feb-16 08:00N 59°43' E 028°26'0 0.0
2018-Feb-16 07:30N 59°43' E 028°26'0 0.0
2018-Feb-16 07:00N 59°43' E 028°26'0 0.0
2018-Feb-16 06:30N 59°43' E 028°26'0 0.0
2018-Feb-16 05:51N 59°43' E 028°26'0 0.0
2018-Feb-16 05:30N 59°43' E 028°26'0 0.0
2018-Feb-16 04:51N 59°43' E 028°26'0 0.0
2018-Feb-16 04:21N 59°43' E 028°26'0 0.0
2018-Feb-16 03:51N 59°43' E 028°26'0 0.0
2018-Feb-16 03:21N 59°43' E 028°26'0 0.0
2018-Feb-16 02:54N 59°43' E 028°26'0 0.0
2018-Feb-16 02:24N 59°43' E 028°26'0 0.0
2018-Feb-16 01:54N 59°43' E 028°26'0 0.0
2018-Feb-16 01:24N 59°43' E 028°26'0 0.0
2018-Feb-16 00:51N 59°43' E 028°26'0 0.0
2018-Feb-16 00:24N 59°43' E 028°26'0 0.0
2018-Feb-15 23:57N 59°43' E 028°26'0 0.0
2018-Feb-15 23:06N 59°43' E 028°26'0 0.0
2018-Feb-15 22:57N 59°43' E 028°26'0 0.0
2018-Feb-15 22:27N 59°43' E 028°26'0 0.0
2018-Feb-15 21:57N 59°43' E 028°26'0 0.0
2018-Feb-15 21:27N 59°43' E 028°26'0 0.0
2018-Feb-15 21:00N 59°43' E 028°26'0 0.0
2018-Feb-15 20:30N 59°43' E 028°26'0 0.0
2018-Feb-15 20:00N 59°43' E 028°26'0 0.0
2018-Feb-15 19:30N 59°43' E 028°26'0 0.0
2018-Feb-15 19:00N 59°43' E 028°26'0 0.0
2018-Feb-15 18:30N 59°43' E 028°26'0 0.0
2018-Feb-15 18:00N 59°43' E 028°26'0 0.0
2018-Feb-15 17:18N 59°43' E 028°26'0 0.0
2018-Feb-15 17:00N 59°43' E 028°26'0 0.0
2018-Feb-15 16:30N 59°43' E 028°26'0 0.0
2018-Feb-15 16:00N 59°43' E 028°26'0 0.0
2018-Feb-15 15:30N 59°43' E 028°26'0 0.0
2018-Feb-15 15:00N 59°43' E 028°26'0 0.0
2018-Feb-15 14:18N 59°43' E 028°26'0 0.0
2018-Feb-15 13:51N 59°43' E 028°26'0 0.0
2018-Feb-15 13:21N 59°43' E 028°26'0 0.0
2018-Feb-15 12:54N 59°43' E 028°26'0 0.0
2018-Feb-15 12:24N 59°43' E 028°26'0 0.0
2018-Feb-15 11:54N 59°43' E 028°26'0 0.0
2018-Feb-15 11:24N 59°43' E 028°26'0 0.0
2018-Feb-15 10:54N 59°43' E 028°26'0 0.0
2018-Feb-15 10:21N 59°43' E 028°26'0 0.0
2018-Feb-15 10:00N 59°43' E 028°26'0 0.0
2018-Feb-15 09:30N 59°43' E 028°26'1 1.2
2018-Feb-15 09:00N 59°42' E 028°25'1 1.9
2018-Feb-15 08:30N 59°42' E 028°24'3 6.3
2018-Feb-15 08:01N 59°46' E 028°24'611.2
2018-Feb-15 07:31N 59°51' E 028°26'510.7
2018-Feb-15 07:00N 59°54' E 028°36'2 4.3
2018-Feb-15 06:30N 59°54' E 028°40'0 0.5
2018-Feb-15 05:52N 59°54' E 028°40'0 0.0
2018-Feb-15 05:25N 59°54' E 028°40'0 0.0
2018-Feb-15 04:55N 59°54' E 028°40'0 0.0
2018-Feb-15 04:28N 59°54' E 028°40'0 0.0
2018-Feb-15 03:58N 59°54' E 028°40'0 0.0
2018-Feb-15 03:28N 59°54' E 028°40'0 0.0
2018-Feb-15 02:58N 59°54' E 028°40'0 0.0
2018-Feb-15 02:28N 59°54' E 028°40'0 0.1
2018-Feb-15 01:58N 59°54' E 028°40'0 0.0
2018-Feb-15 01:28N 59°54' E 028°40'0 0.0
2018-Feb-15 00:53N 59°54' E 028°40'0 0.0
2018-Feb-15 00:25N 59°54' E 028°40'0 0.0
2018-Feb-14 23:58N 59°54' E 028°40'0 0.1
2018-Feb-14 23:28N 59°54' E 028°40'0 0.0
2018-Feb-14 22:55N 59°54' E 028°40'0 0.0
2018-Feb-14 22:28N 59°54' E 028°40'0 0.0
2018-Feb-14 21:58N 59°54' E 028°40'0 0.0
2018-Feb-14 21:28N 59°54' E 028°40'0 0.1
2018-Feb-14 20:58N 59°54' E 028°40'0 0.0
2018-Feb-14 20:28N 59°54' E 028°40'0 0.0
2018-Feb-14 19:55N 59°54' E 028°40'0 0.0
2018-Feb-14 19:28N 59°54' E 028°40'0 0.0
2018-Feb-14 18:58N 59°54' E 028°40'0 0.0
2018-Feb-14 18:22N 59°54' E 028°40'0 0.0
2018-Feb-14 17:52N 59°54' E 028°40'0 0.0
2018-Feb-14 17:22N 59°54' E 028°40'0 0.0
2018-Feb-14 16:52N 59°54' E 028°40'0 0.0
2018-Feb-14 16:22N 59°54' E 028°40'0 0.1
2018-Feb-14 15:52N 59°54' E 028°40'0 0.0
2018-Feb-14 15:25N 59°54' E 028°40'0 0.0
2018-Feb-14 14:55N 59°54' E 028°40'0 0.0
2018-Feb-14 14:13N 59°54' E 028°40'0 0.0
2018-Feb-14 13:55N 59°54' E 028°40'0 0.0
2018-Feb-14 13:25N 59°54' E 028°40'0 0.0
2018-Feb-14 12:58N 59°54' E 028°40'0 0.0
2018-Feb-14 12:28N 59°54' E 028°40'0 0.0
2018-Feb-14 11:58N 59°54' E 028°40'0 0.0
2018-Feb-14 11:28N 59°54' E 028°40'0 0.0
2018-Feb-14 10:58N 59°54' E 028°40'0 0.0
2018-Feb-14 10:28N 59°54' E 028°40'0 0.0
2018-Feb-14 09:58N 59°54' E 028°40'0 0.0
2018-Feb-14 09:28N 59°54' E 028°40'0 0.0
2018-Feb-14 08:58N 59°54' E 028°40'0 0.0
2018-Feb-14 08:28N 59°54' E 028°40'0 0.0
2018-Feb-14 07:58N 59°54' E 028°40'0 0.0
2018-Feb-14 07:28N 59°54' E 028°40'0 0.0
2018-Feb-14 06:43N 59°54' E 028°40'0 0.0
2018-Feb-14 06:28N 59°54' E 028°40'0 0.0
2018-Feb-14 05:58N 59°54' E 028°40'0 0.0
2018-Feb-14 05:28N 59°54' E 028°40'0 0.0
2018-Feb-14 04:55N 59°54' E 028°40'0 0.0
2018-Feb-14 04:25N 59°54' E 028°40'0 0.0
2018-Feb-14 03:55N 59°54' E 028°40'0 0.0
2018-Feb-14 03:28N 59°54' E 028°40'0 0.1
2018-Feb-14 02:52N 59°54' E 028°40'0 0.0
2018-Feb-14 02:28N 59°54' E 028°40'0 0.1
2018-Feb-14 01:58N 59°54' E 028°40'0 0.1
2018-Feb-14 01:28N 59°54' E 028°40'0 0.0
2018-Feb-14 00:58N 59°54' E 028°40'0 0.1
2018-Feb-14 00:28N 59°54' E 028°40'0 0.0
2018-Feb-13 23:58N 59°54' E 028°40'0 0.0
2018-Feb-13 23:25N 59°54' E 028°40'0 0.1
2018-Feb-13 22:55N 59°54' E 028°40'0 0.0
2018-Feb-13 22:25N 59°54' E 028°40'0 0.0
2018-Feb-13 21:55N 59°54' E 028°40'0 0.0
2018-Feb-13 21:28N 59°54' E 028°40'0 0.0
2018-Feb-13 20:57N 59°54' E 028°40'0 0.0
2018-Feb-13 20:26N 59°54' E 028°40'0 0.0
2018-Feb-13 19:59N 59°54' E 028°40'0 0.0
2018-Feb-13 19:27N 59°54' E 028°40'0 0.1
2018-Feb-13 18:58N 59°54' E 028°40'0 0.0
2018-Feb-13 18:28N 59°54' E 028°40'0 0.0
2018-Feb-13 17:58N 59°54' E 028°40'0 0.0
2018-Feb-13 17:28N 59°54' E 028°40'0 0.0
2018-Feb-13 16:58N 59°54' E 028°40'0 0.0
2018-Feb-13 16:28N 59°54' E 028°40'0 0.0
2018-Feb-13 15:58N 59°54' E 028°40'0 0.0
2018-Feb-13 15:28N 59°54' E 028°40'0 0.0
2018-Feb-13 14:46N 59°54' E 028°40'0 0.0
2018-Feb-13 14:19N 59°54' E 028°40'0 0.1
2018-Feb-13 13:56N 59°54' E 028°40'0 0.0
2018-Feb-13 13:29N 59°54' E 028°40'0 0.0
2018-Feb-13 12:52N 59°54' E 028°40'0 0.0
2018-Feb-13 12:28N 59°54' E 028°40'0 0.0
2018-Feb-13 12:00N 59°54' E 028°40'0 0.0
2018-Feb-13 11:22N 59°54' E 028°40'0 0.0
2018-Feb-13 10:55N 59°54' E 028°40'0 0.0
2018-Feb-13 10:25N 59°54' E 028°40'0 0.0
2018-Feb-13 10:00N 59°54' E 028°40'0 0.0
2018-Feb-13 09:30N 59°54' E 028°40'0 0.0
2018-Feb-13 08:58N 59°54' E 028°40'0 0.0
2018-Feb-13 08:25N 59°54' E 028°40'0 0.0
2018-Feb-13 08:00N 59°54' E 028°40'0 0.0
2018-Feb-13 07:28N 59°54' E 028°40'0 0.0
2018-Feb-13 06:58N 59°54' E 028°40'0 0.0
2018-Feb-13 06:10N 59°54' E 028°40'0 0.0
2018-Feb-13 05:58N 59°54' E 028°40'0 0.0
2018-Feb-13 05:29N 59°54' E 028°40'0 0.0
2018-Feb-13 04:59N 59°54' E 028°40'0 0.0
2018-Feb-13 04:30N 59°54' E 028°40'0 0.0
2018-Feb-13 03:58N 59°54' E 028°40'0 0.0
2018-Feb-13 03:28N 59°54' E 028°40'0 0.0
2018-Feb-13 02:58N 59°54' E 028°40'  
Track history (hours):
 
Tides and Currents Weather Stations Pressure Air Temp Water Temp Dewpoint Dewpoint Depression Visibility Wind Speed Wind Dir Waves Ship Positions

Ligovsky Prospect

Last reported at 2018-Feb-23 02:56 UTC. Time now 2018-Feb-23 03:11 UTC.
Position N 55°46' E 016°41'.

Length 250 m; draft 8.8 m.

Type: Ship. MMSI: 636011641.

Date/timePositionNaut miles runAvg speedWind from/ knotsBaromVisibWave heightAir tempDewpointWater temp
2018-Feb-23 02:56N 55°46' E 016°41'511.5
2018-Feb-23 02:30N 55°45' E 016°32'611.7
2018-Feb-23 02:00N 55°44' E 016°22'611.6
2018-Feb-23 01:30N 55°42' E 016°12'611.4
2018-Feb-23 01:00N 55°41' E 016°02'611.4
2018-Feb-23 00:30N 55°40' E 015°53'611.4
2018-Feb-23 00:00N 55°38' E 015°43'611.2
2018-Feb-22 23:30N 55°37' E 015°33'611.2
2018-Feb-22 23:00N 55°35' E 015°24'511.1
2018-Feb-22 22:30N 55°33' E 015°15'510.9
2018-Feb-22 22:00N 55°30' E 015°06'510.8
2018-Feb-22 21:30N 55°28' E 014°58'510.8
2018-Feb-22 21:00N 55°26' E 014°49'510.9
2018-Feb-22 20:30N 55°24' E 014°40'510.7
2018-Feb-22 20:00N 55°20' E 014°33'510.9
2018-Feb-22 19:30N 55°16' E 014°27'510.9
2018-Feb-22 19:00N 55°12' E 014°21'611.0
2018-Feb-22 18:30N 55°07' E 014°15'611.0
2018-Feb-22 17:59N 55°03' E 014°08'1310.4
2018-Feb-22 16:44N 54°58' E 013°47'5210.3
2018-Feb-22 11:45N 54°38' E 012°25'210.3
2018-Feb-22 11:30N 54°37' E 012°21'5 9.8
2018-Feb-22 11:00N 54°33' E 012°16'510.2
2018-Feb-22 10:30N 54°28' E 012°13'4 9.0
2018-Feb-22 10:00N 54°25' E 012°08'1010.7
2018-Feb-22 09:02N 54°25' E 011°50'410.7
2018-Feb-22 08:42N 54°26' E 011°44'211.0
2018-Feb-22 08:29N 54°27' E 011°40'510.9
2018-Feb-22 08:00N 54°29' E 011°32'510.7
2018-Feb-22 07:30N 54°31' E 011°24'510.3
2018-Feb-22 07:00N 54°34' E 011°16'510.0
2018-Feb-22 06:30N 54°36' E 011°08'510.2
2018-Feb-22 06:00N 54°39' E 011°01'510.3
2018-Feb-22 05:30N 54°41' E 010°53'4 8.0
2018-Feb-22 05:00N 54°45' E 010°49'4 9.0
2018-Feb-22 04:30N 54°49' E 010°51'510.8
2018-Feb-22 04:00N 54°54' E 010°53'611.2
2018-Feb-22 03:30N 54°59' E 010°60'611.2
2018-Feb-22 03:00N 55°04' E 011°02'510.9
2018-Feb-22 02:30N 55°09' E 011°03'510.6
2018-Feb-22 02:00N 55°15' E 011°05'611.6
2018-Feb-22 01:30N 55°20' E 011°02'10110.0
2018-Feb-21 15:27N 56°58' E 011°44'511.1
2018-Feb-21 15:00N 57°03' E 011°41'510.9
2018-Feb-21 14:30N 57°08' E 011°37'511.1
2018-Feb-21 14:00N 57°13' E 011°34'611.5
2018-Feb-21 13:30N 57°18' E 011°30'611.4
2018-Feb-21 13:00N 57°24' E 011°27'510.6
2018-Feb-21 12:30N 57°28' E 011°22'611.1
2018-Feb-21 12:00N 57°32' E 011°15'611.1
2018-Feb-21 11:30N 57°36' E 011°07'510.6
2018-Feb-21 11:00N 57°40' E 011°00'611.2
2018-Feb-21 10:30N 57°45' E 010°60'611.6
2018-Feb-21 10:00N 57°51' E 011°00'611.6
2018-Feb-21 09:30N 57°57' E 010°60'611.1
2018-Feb-21 09:00N 58°03' E 011°00'510.6
2018-Feb-21 08:30N 58°08' E 011°00'510.0
2018-Feb-21 08:00N 58°12' E 011°05'510.5
2018-Feb-21 07:30N 58°15' E 011°13'5 9.3
2018-Feb-21 07:00N 58°18' E 011°20'4 0.1
2018-Feb-20 03:20N 58°21' E 011°24'0 0.1
2018-Feb-20 03:00N 58°21' E 011°24'1 1.4
2018-Feb-20 02:30N 58°20' E 011°23'2 3.2
2018-Feb-20 02:00N 58°19' E 011°21'4 8.2
2018-Feb-20 01:30N 58°16' E 011°16'5 9.5
2018-Feb-20 01:00N 58°13' E 011°09'4 7.1
2018-Feb-20 00:30N 58°12' E 011°03'4 7.1
2018-Feb-20 00:00N 58°09' E 011°02'510.3
2018-Feb-19 23:30N 58°04' E 010°57'613.0
2018-Feb-19 23:00N 57°58' E 010°60'612.7
2018-Feb-19 22:30N 57°52' E 011°02'612.5
2018-Feb-19 22:00N 57°45' E 011°05'612.8
2018-Feb-19 21:30N 57°40' E 011°10'612.5
2018-Feb-19 21:00N 57°34' E 011°16'612.1
2018-Feb-19 20:30N 57°30' E 011°23'612.0
2018-Feb-19 20:00N 57°25' E 011°29'611.8
2018-Feb-19 19:30N 57°19' E 011°34'611.6
2018-Feb-19 19:00N 57°14' E 011°37'612.1
2018-Feb-19 18:30N 57°08' E 011°40'11010.9
2018-Feb-19 08:24N 55°20' E 011°02'410.6
2018-Feb-19 07:59N 55°16' E 011°05'5 9.5
2018-Feb-19 07:30N 55°12' E 011°05'611.2
2018-Feb-19 07:00N 55°07' E 010°59'612.4
2018-Feb-19 06:30N 55°01' E 010°59'611.6
2018-Feb-19 06:00N 54°56' E 010°53'612.0
2018-Feb-19 05:30N 54°50' E 010°50'611.6
2018-Feb-19 05:00N 54°45' E 010°47'5 9.6
2018-Feb-19 04:30N 54°40' E 010°49'612.2
2018-Feb-19 04:00N 54°37' E 010°58'612.4
2018-Feb-19 03:30N 54°36' E 011°08'612.9
2018-Feb-19 03:00N 54°34' E 011°18'612.8
2018-Feb-19 02:30N 54°31' E 011°28'612.4
2018-Feb-19 02:00N 54°28' E 011°38'612.5
2018-Feb-19 01:30N 54°27' E 011°49'612.9
2018-Feb-19 01:00N 54°26' E 011°60'810.8
2018-Feb-19 00:16N 54°29' E 012°12'312.1
2018-Feb-19 00:00N 54°32' E 012°14'5 9.4
2018-Feb-18 23:30N 54°36' E 012°18'5411.6
2018-Feb-18 18:50N 54°59' E 013°43'512.8
2018-Feb-18 18:28N 55°01' E 013°51'612.5
2018-Feb-18 18:00N 55°03' E 014°00'711.8
2018-Feb-18 17:27N 55°07' E 014°09'712.1
2018-Feb-18 16:54N 55°12' E 014°15'712.1
2018-Feb-18 16:17N 55°18' E 014°24'512.4
2018-Feb-18 15:52N 55°22' E 014°30'512.5
2018-Feb-18 15:30N 55°25' E 014°35'612.4
2018-Feb-18 14:59N 55°28' E 014°45'812.5
2018-Feb-18 14:19N 55°32' E 014°58'412.4
2018-Feb-18 14:00N 55°34' E 015°04'612.2
2018-Feb-18 13:30N 55°36' E 015°14'612.0
2018-Feb-18 13:00N 55°38' E 015°24'612.1
2018-Feb-18 12:30N 55°40' E 015°35'612.1
2018-Feb-18 12:00N 55°41' E 015°45'612.2
2018-Feb-18 11:30N 55°43' E 015°55'612.3
2018-Feb-18 11:00N 55°45' E 016°06'612.2
2018-Feb-18 10:30N 55°47' E 016°16'612.2
2018-Feb-18 10:00N 55°48' E 016°27'612.2
2018-Feb-18 09:30N 55°50' E 016°37'612.2
2018-Feb-18 09:00N 55°51' E 016°48'612.3
2018-Feb-18 08:30N 55°53' E 016°58'28912.1
2018-Feb-17 08:42N 59°32' E 022°51'413.4
2018-Feb-17 08:26N 59°33' E 022°57'613.3
2018-Feb-17 08:00N 59°35' E 023°08'612.9
2018-Feb-17 07:30N 59°37' E 023°20'713.1
2018-Feb-17 07:00N 59°39' E 023°32'714.4
2018-Feb-17 06:30N 59°42' E 023°46'714.2
2018-Feb-17 06:00N 59°44' E 023°60'713.1
2018-Feb-17 05:28N 59°46' E 024°13'613.4
2018-Feb-17 05:00N 59°47' E 024°25'713.3
2018-Feb-17 04:30N 59°49' E 024°38'613.0
2018-Feb-17 04:00N 59°50' E 024°50'713.0
2018-Feb-17 03:30N 59°51' E 025°03'612.9
2018-Feb-17 03:00N 59°52' E 025°16'612.9
2018-Feb-17 02:30N 59°53' E 025°28'613.1
2018-Feb-17 02:00N 59°54' E 025°41'1412.8
2018-Feb-17 00:56N 59°58' E 026°08'613.0
2018-Feb-17 00:31N 59°59' E 026°18'613.0
2018-Feb-17 00:01N 60°01' E 026°31'612.4
2018-Feb-16 23:30N 60°01' E 026°43'714.1
2018-Feb-16 23:00N 59°60' E 026°57'510.2
2018-Feb-16 22:30N 60°01' E 027°07'612.6
2018-Feb-16 22:00N 60°04' E 027°18'611.6
2018-Feb-16 21:30N 60°07' E 027°28'5 9.7
2018-Feb-16 21:00N 60°09' E 027°36'4 8.5
2018-Feb-16 20:29N 60°11' E 027°45'4 8.8
2018-Feb-16 20:00N 60°11' E 027°53'4 8.7
2018-Feb-16 19:30N 60°10' E 028°02'4 7.7
2018-Feb-16 19:00N 60°09' E 028°09'4 8.6
2018-Feb-16 18:30N 60°08' E 028°17'510.1
2018-Feb-16 18:00N 60°05' E 028°26'5 9.8
2018-Feb-16 17:30N 60°03' E 028°35'5 9.3
2018-Feb-16 17:00N 59°58' E 028°36'3 7.0
2018-Feb-16 16:30N 59°55' E 028°33'4 8.4
2018-Feb-16 16:00N 59°52' E 028°28'611.0
2018-Feb-16 15:30N 59°47' E 028°25'4 7.6
2018-Feb-16 15:00N 59°43' E 028°25'0 0.7
2018-Feb-16 14:27N 59°43' E 028°26'0 0.0
2018-Feb-16 13:57N 59°43' E 028°26'0 0.0
2018-Feb-16 13:27N 59°43' E 028°26'0 0.0
2018-Feb-16 12:57N 59°43' E 028°26'0 0.0
2018-Feb-16 12:27N 59°43' E 028°26'0 0.0
2018-Feb-16 11:57N 59°43' E 028°26'0 0.0
2018-Feb-16 11:30N 59°43' E 028°26'0 0.0
2018-Feb-16 11:00N 59°43' E 028°26'0 0.0
2018-Feb-16 10:30N 59°43' E 028°26'0 0.0
2018-Feb-16 10:00N 59°43' E 028°26'0 0.0
2018-Feb-16 09:30N 59°43' E 028°26'0 0.0
2018-Feb-16 09:00N 59°43' E 028°26'0 0.0
2018-Feb-16 08:30N 59°43' E 028°26'0 0.0
2018-Feb-16 08:00N 59°43' E 028°26'0 0.0
2018-Feb-16 07:30N 59°43' E 028°26'0 0.0
2018-Feb-16 07:00N 59°43' E 028°26'0 0.0
2018-Feb-16 06:30N 59°43' E 028°26'0 0.0
2018-Feb-16 05:51N 59°43' E 028°26'0 0.0
2018-Feb-16 05:30N 59°43' E 028°26'0 0.0
2018-Feb-16 04:51N 59°43' E 028°26'0 0.0
2018-Feb-16 04:21N 59°43' E 028°26'0 0.0
2018-Feb-16 03:51N 59°43' E 028°26'0 0.0
2018-Feb-16 03:21N 59°43' E 028°26'0 0.0
2018-Feb-16 02:54N 59°43' E 028°26'0 0.0
2018-Feb-16 02:24N 59°43' E 028°26'0 0.0
2018-Feb-16 01:54N 59°43' E 028°26'0 0.0
2018-Feb-16 01:24N 59°43' E 028°26'0 0.0
2018-Feb-16 00:51N 59°43' E 028°26'0 0.0
2018-Feb-16 00:24N 59°43' E 028°26'0 0.0
2018-Feb-15 23:57N 59°43' E 028°26'0 0.0
2018-Feb-15 23:06N 59°43' E 028°26'0 0.0
2018-Feb-15 22:57N 59°43' E 028°26'0 0.0
2018-Feb-15 22:27N 59°43' E 028°26'0 0.0
2018-Feb-15 21:57N 59°43' E 028°26'0 0.0
2018-Feb-15 21:27N 59°43' E 028°26'0 0.0
2018-Feb-15 21:00N 59°43' E 028°26'0 0.0
2018-Feb-15 20:30N 59°43' E 028°26'0 0.0
2018-Feb-15 20:00N 59°43' E 028°26'0 0.0
2018-Feb-15 19:30N 59°43' E 028°26'0 0.0
2018-Feb-15 19:00N 59°43' E 028°26'0 0.0
2018-Feb-15 18:30N 59°43' E 028°26'0 0.0
2018-Feb-15 18:00N 59°43' E 028°26'0 0.0
2018-Feb-15 17:18N 59°43' E 028°26'0 0.0
2018-Feb-15 17:00N 59°43' E 028°26'0 0.0
2018-Feb-15 16:30N 59°43' E 028°26'0 0.0
2018-Feb-15 16:00N 59°43' E 028°26'0 0.0
2018-Feb-15 15:30N 59°43' E 028°26'0 0.0
2018-Feb-15 15:00N 59°43' E 028°26'0 0.0
2018-Feb-15 14:18N 59°43' E 028°26'0 0.0
2018-Feb-15 13:51N 59°43' E 028°26'0 0.0
2018-Feb-15 13:21N 59°43' E 028°26'0 0.0
2018-Feb-15 12:54N 59°43' E 028°26'0 0.0
2018-Feb-15 12:24N 59°43' E 028°26'0 0.0
2018-Feb-15 11:54N 59°43' E 028°26'0 0.0
2018-Feb-15 11:24N 59°43' E 028°26'0 0.0
2018-Feb-15 10:54N 59°43' E 028°26'0 0.0
2018-Feb-15 10:21N 59°43' E 028°26'0 0.0
2018-Feb-15 10:00N 59°43' E 028°26'0 0.0
2018-Feb-15 09:30N 59°43' E 028°26'1 1.2
2018-Feb-15 09:00N 59°42' E 028°25'1 1.9
2018-Feb-15 08:30N 59°42' E 028°24'3 6.3
2018-Feb-15 08:01N 59°46' E 028°24'611.2
2018-Feb-15 07:31N 59°51' E 028°26'510.7
2018-Feb-15 07:00N 59°54' E 028°36'2 4.3
2018-Feb-15 06:30N 59°54' E 028°40'0 0.5
2018-Feb-15 05:52N 59°54' E 028°40'0 0.0
2018-Feb-15 05:25N 59°54' E 028°40'0 0.0
2018-Feb-15 04:55N 59°54' E 028°40'0 0.0
2018-Feb-15 04:28N 59°54' E 028°40'0 0.0
2018-Feb-15 03:58N 59°54' E 028°40'0 0.0
2018-Feb-15 03:28N 59°54' E 028°40'0 0.0
2018-Feb-15 02:58N 59°54' E 028°40'0 0.0
2018-Feb-15 02:28N 59°54' E 028°40'0 0.1
2018-Feb-15 01:58N 59°54' E 028°40'0 0.0
2018-Feb-15 01:28N 59°54' E 028°40'0 0.0
2018-Feb-15 00:53N 59°54' E 028°40'0 0.0
2018-Feb-15 00:25N 59°54' E 028°40'0 0.0
2018-Feb-14 23:58N 59°54' E 028°40'0 0.1
2018-Feb-14 23:28N 59°54' E 028°40'0 0.0
2018-Feb-14 22:55N 59°54' E 028°40'0 0.0
2018-Feb-14 22:28N 59°54' E 028°40'0 0.0
2018-Feb-14 21:58N 59°54' E 028°40'0 0.0
2018-Feb-14 21:28N 59°54' E 028°40'0 0.1
2018-Feb-14 20:58N 59°54' E 028°40'0 0.0
2018-Feb-14 20:28N 59°54' E 028°40'0 0.0
2018-Feb-14 19:55N 59°54' E 028°40'0 0.0
2018-Feb-14 19:28N 59°54' E 028°40'0 0.0
2018-Feb-14 18:58N 59°54' E 028°40'0 0.0
2018-Feb-14 18:22N 59°54' E 028°40'0 0.0
2018-Feb-14 17:52N 59°54' E 028°40'0 0.0
2018-Feb-14 17:22N 59°54' E 028°40'0 0.0
2018-Feb-14 16:52N 59°54' E 028°40'0 0.0
2018-Feb-14 16:22N 59°54' E 028°40'0 0.1
2018-Feb-14 15:52N 59°54' E 028°40'0 0.0
2018-Feb-14 15:25N 59°54' E 028°40'0 0.0
2018-Feb-14 14:55N 59°54' E 028°40'0 0.0
2018-Feb-14 14:13N 59°54' E 028°40'0 0.0
2018-Feb-14 13:55N 59°54' E 028°40'0 0.0
2018-Feb-14 13:25N 59°54' E 028°40'0 0.0
2018-Feb-14 12:58N 59°54' E 028°40'0 0.0
2018-Feb-14 12:28N 59°54' E 028°40'0 0.0
2018-Feb-14 11:58N 59°54' E 028°40'0 0.0
2018-Feb-14 11:28N 59°54' E 028°40'0 0.0
2018-Feb-14 10:58N 59°54' E 028°40'0 0.0
2018-Feb-14 10:28N 59°54' E 028°40'0 0.0
2018-Feb-14 09:58N 59°54' E 028°40'0 0.0
2018-Feb-14 09:28N 59°54' E 028°40'0 0.0
2018-Feb-14 08:58N 59°54' E 028°40'0 0.0
2018-Feb-14 08:28N 59°54' E 028°40'0 0.0
2018-Feb-14 07:58N 59°54' E 028°40'0 0.0
2018-Feb-14 07:28N 59°54' E 028°40'0 0.0
2018-Feb-14 06:43N 59°54' E 028°40'0 0.0
2018-Feb-14 06:28N 59°54' E 028°40'0 0.0
2018-Feb-14 05:58N 59°54' E 028°40'0 0.0
2018-Feb-14 05:28N 59°54' E 028°40'0 0.0
2018-Feb-14 04:55N 59°54' E 028°40'0 0.0
2018-Feb-14 04:25N 59°54' E 028°40'0 0.0
2018-Feb-14 03:55N 59°54' E 028°40'0 0.0
2018-Feb-14 03:28N 59°54' E 028°40'0 0.1
2018-Feb-14 02:52N 59°54' E 028°40'0 0.0
2018-Feb-14 02:28N 59°54' E 028°40'0 0.1
2018-Feb-14 01:58N 59°54' E 028°40'0 0.1
2018-Feb-14 01:28N 59°54' E 028°40'0 0.0
2018-Feb-14 00:58N 59°54' E 028°40'0 0.1
2018-Feb-14 00:28N 59°54' E 028°40'0 0.0
2018-Feb-13 23:58N 59°54' E 028°40'0 0.0
2018-Feb-13 23:25N 59°54' E 028°40'0 0.1
2018-Feb-13 22:55N 59°54' E 028°40'0 0.0
2018-Feb-13 22:25N 59°54' E 028°40'0 0.0
2018-Feb-13 21:55N 59°54' E 028°40'0 0.0
2018-Feb-13 21:28N 59°54' E 028°40'0 0.0
2018-Feb-13 20:57N 59°54' E 028°40'0 0.0
2018-Feb-13 20:26N 59°54' E 028°40'0 0.0
2018-Feb-13 19:59N 59°54' E 028°40'0 0.0
2018-Feb-13 19:27N 59°54' E 028°40'0 0.1
2018-Feb-13 18:58N 59°54' E 028°40'0 0.0
2018-Feb-13 18:28N 59°54' E 028°40'0 0.0
2018-Feb-13 17:58N 59°54' E 028°40'0 0.0
2018-Feb-13 17:28N 59°54' E 028°40'0 0.0
2018-Feb-13 16:58N 59°54' E 028°40'0 0.0
2018-Feb-13 16:28N 59°54' E 028°40'0 0.0
2018-Feb-13 15:58N 59°54' E 028°40'0 0.0
2018-Feb-13 15:28N 59°54' E 028°40'0 0.0
2018-Feb-13 14:46N 59°54' E 028°40'0 0.0
2018-Feb-13 14:19N 59°54' E 028°40'0 0.1
2018-Feb-13 13:56N 59°54' E 028°40'0 0.0
2018-Feb-13 13:29N 59°54' E 028°40'0 0.0
2018-Feb-13 12:52N 59°54' E 028°40'0 0.0
2018-Feb-13 12:28N 59°54' E 028°40'0 0.0
2018-Feb-13 12:00N 59°54' E 028°40'0 0.0
2018-Feb-13 11:22N 59°54' E 028°40'0 0.0
2018-Feb-13 10:55N 59°54' E 028°40'0 0.0
2018-Feb-13 10:25N 59°54' E 028°40'0 0.0
2018-Feb-13 10:00N 59°54' E 028°40'0 0.0
2018-Feb-13 09:30N 59°54' E 028°40'0 0.0
2018-Feb-13 08:58N 59°54' E 028°40'0 0.0
2018-Feb-13 08:25N 59°54' E 028°40'0 0.0
2018-Feb-13 08:00N 59°54' E 028°40'0 0.0
2018-Feb-13 07:28N 59°54' E 028°40'0 0.0
2018-Feb-13 06:58N 59°54' E 028°40'0 0.0
2018-Feb-13 06:10N 59°54' E 028°40'0 0.0
2018-Feb-13 05:58N 59°54' E 028°40'0 0.0
2018-Feb-13 05:29N 59°54' E 028°40'0 0.0
2018-Feb-13 04:59N 59°54' E 028°40'0 0.0
2018-Feb-13 04:30N 59°54' E 028°40'0 0.0
2018-Feb-13 03:58N 59°54' E 028°40'0 0.0
2018-Feb-13 03:28N 59°54' E 028°40'0 0.0
2018-Feb-13 02:58N 59°54' E 028°40'  

Dump ship's entire track history